sensor_id;sensor_type;location;lat;lon;timestamp;P1;durP1;ratioP1;P2;durP2;ratioP2
9330;SDS011;4704;50.470;12.072;2022-07-23T00:02:08;3.00;;;2.80;;
9330;SDS011;4704;50.470;12.072;2022-07-23T00:04:36;3.08;;;2.88;;
9330;SDS011;4704;50.470;12.072;2022-07-23T00:07:04;2.83;;;2.70;;
9330;SDS011;4704;50.470;12.072;2022-07-23T00:09:31;3.00;;;2.80;;
9330;SDS011;4704;50.470;12.072;2022-07-23T00:11:59;3.30;;;3.10;;
9330;SDS011;4704;50.470;12.072;2022-07-23T00:14:27;3.08;;;2.88;;
9330;SDS011;4704;50.470;12.072;2022-07-23T00:16:54;3.33;;;3.13;;
9330;SDS011;4704;50.470;12.072;2022-07-23T00:19:23;3.10;;;2.90;;
9330;SDS011;4704;50.470;12.072;2022-07-23T00:21:51;3.00;;;2.80;;
9330;SDS011;4704;50.470;12.072;2022-07-23T00:24:18;3.20;;;3.00;;
9330;SDS011;4704;50.470;12.072;2022-07-23T00:26:46;3.47;;;3.20;;
9330;SDS011;4704;50.470;12.072;2022-07-23T00:29:14;3.28;;;2.97;;
9330;SDS011;4704;50.470;12.072;2022-07-23T00:31:41;3.17;;;2.92;;
9330;SDS011;4704;50.470;12.072;2022-07-23T00:34:09;3.25;;;3.05;;
9330;SDS011;4704;50.470;12.072;2022-07-23T00:36:38;3.10;;;2.90;;
9330;SDS011;4704;50.470;12.072;2022-07-23T00:39:06;2.88;;;2.67;;
9330;SDS011;4704;50.470;12.072;2022-07-23T00:41:34;3.15;;;2.92;;
9330;SDS011;4704;50.470;12.072;2022-07-23T00:44:14;3.28;;;2.97;;
9330;SDS011;4704;50.470;12.072;2022-07-23T00:46:44;3.13;;;2.92;;
9330;SDS011;4704;50.470;12.072;2022-07-23T00:49:12;2.88;;;2.72;;
9330;SDS011;4704;50.470;12.072;2022-07-23T00:51:41;3.10;;;2.90;;
9330;SDS011;4704;50.470;12.072;2022-07-23T00:54:09;2.90;;;2.70;;
9330;SDS011;4704;50.470;12.072;2022-07-23T00:56:37;3.10;;;2.90;;
9330;SDS011;4704;50.470;12.072;2022-07-23T00:59:05;2.85;;;2.72;;
9330;SDS011;4704;50.470;12.072;2022-07-23T01:01:33;3.00;;;2.83;;
9330;SDS011;4704;50.470;12.072;2022-07-23T01:04:00;3.00;;;2.80;;
9330;SDS011;4704;50.470;12.072;2022-07-23T01:06:28;3.13;;;2.92;;
9330;SDS011;4704;50.470;12.072;2022-07-23T01:08:58;2.97;;;2.78;;
9330;SDS011;4704;50.470;12.072;2022-07-23T01:11:25;3.17;;;2.90;;
9330;SDS011;4704;50.470;12.072;2022-07-23T01:13:53;2.90;;;2.70;;
9330;SDS011;4704;50.470;12.072;2022-07-23T01:16:20;3.03;;;2.83;;
9330;SDS011;4704;50.470;12.072;2022-07-23T01:18:48;2.90;;;2.70;;
9330;SDS011;4704;50.470;12.072;2022-07-23T01:21:16;3.03;;;2.83;;
9330;SDS011;4704;50.470;12.072;2022-07-23T01:23:46;3.33;;;3.13;;
9330;SDS011;4704;50.470;12.072;2022-07-23T01:26:14;3.20;;;3.00;;
9330;SDS011;4704;50.470;12.072;2022-07-23T01:28:42;3.20;;;3.00;;
9330;SDS011;4704;50.470;12.072;2022-07-23T01:31:10;2.85;;;2.65;;
9330;SDS011;4704;50.470;12.072;2022-07-23T01:33:37;3.13;;;2.92;;
9330;SDS011;4704;50.470;12.072;2022-07-23T01:36:06;3.10;;;2.90;;
9330;SDS011;4704;50.470;12.072;2022-07-23T01:38:33;3.17;;;2.97;;
9330;SDS011;4704;50.470;12.072;2022-07-23T01:41:03;3.05;;;2.85;;
9330;SDS011;4704;50.470;12.072;2022-07-23T01:43:30;3.17;;;2.97;;
9330;SDS011;4704;50.470;12.072;2022-07-23T01:45:58;3.10;;;2.90;;
9330;SDS011;4704;50.470;12.072;2022-07-23T01:48:26;3.38;;;3.17;;
9330;SDS011;4704;50.470;12.072;2022-07-23T01:50:53;3.20;;;3.00;;
9330;SDS011;4704;50.470;12.072;2022-07-23T01:53:21;3.42;;;3.03;;
9330;SDS011;4704;50.470;12.072;2022-07-23T01:55:49;3.40;;;3.10;;
9330;SDS011;4704;50.470;12.072;2022-07-23T01:58:17;3.00;;;2.80;;
9330;SDS011;4704;50.470;12.072;2022-07-23T02:00:45;3.53;;;3.33;;
9330;SDS011;4704;50.470;12.072;2022-07-23T02:03:13;3.20;;;2.97;;
9330;SDS011;4704;50.470;12.072;2022-07-23T02:05:40;3.00;;;2.80;;
9330;SDS011;4704;50.470;12.072;2022-07-23T02:08:08;3.20;;;3.00;;
9330;SDS011;4704;50.470;12.072;2022-07-23T02:10:35;3.20;;;3.00;;
9330;SDS011;4704;50.470;12.072;2022-07-23T02:13:03;3.13;;;2.92;;
9330;SDS011;4704;50.470;12.072;2022-07-23T02:15:33;3.38;;;3.08;;
9330;SDS011;4704;50.470;12.072;2022-07-23T02:18:00;3.05;;;2.85;;
9330;SDS011;4704;50.470;12.072;2022-07-23T02:20:28;3.40;;;3.20;;
9330;SDS011;4704;50.470;12.072;2022-07-23T02:22:55;3.40;;;3.20;;
9330;SDS011;4704;50.470;12.072;2022-07-23T02:25:23;3.50;;;3.30;;
9330;SDS011;4704;50.470;12.072;2022-07-23T02:27:51;3.58;;;3.35;;
9330;SDS011;4704;50.470;12.072;2022-07-23T02:30:19;3.45;;;3.22;;
9330;SDS011;4704;50.470;12.072;2022-07-23T02:32:48;3.28;;;3.08;;
9330;SDS011;4704;50.470;12.072;2022-07-23T02:35:15;3.60;;;3.40;;
9330;SDS011;4704;50.470;12.072;2022-07-23T02:37:43;3.53;;;3.33;;
9330;SDS011;4704;50.470;12.072;2022-07-23T02:40:10;3.30;;;3.10;;
9330;SDS011;4704;50.470;12.072;2022-07-23T02:42:39;3.17;;;2.97;;
9330;SDS011;4704;50.470;12.072;2022-07-23T02:45:07;3.55;;;3.35;;
9330;SDS011;4704;50.470;12.072;2022-07-23T02:47:34;3.40;;;3.20;;
9330;SDS011;4704;50.470;12.072;2022-07-23T02:50:04;3.58;;;3.28;;
9330;SDS011;4704;50.470;12.072;2022-07-23T02:52:32;3.45;;;3.25;;
9330;SDS011;4704;50.470;12.072;2022-07-23T02:54:59;3.60;;;3.40;;
9330;SDS011;4704;50.470;12.072;2022-07-23T02:57:27;3.65;;;3.35;;
9330;SDS011;4704;50.470;12.072;2022-07-23T02:59:55;3.33;;;3.13;;
9330;SDS011;4704;50.470;12.072;2022-07-23T03:02:23;3.38;;;3.17;;
9330;SDS011;4704;50.470;12.072;2022-07-23T03:04:50;3.67;;;3.47;;
9330;SDS011;4704;50.470;12.072;2022-07-23T03:07:19;3.45;;;3.15;;
9330;SDS011;4704;50.470;12.072;2022-07-23T03:09:47;3.47;;;3.28;;
9330;SDS011;4704;50.470;12.072;2022-07-23T03:12:15;3.75;;;3.55;;
9330;SDS011;4704;50.470;12.072;2022-07-23T03:14:42;3.55;;;3.35;;
9330;SDS011;4704;50.470;12.072;2022-07-23T03:17:10;3.55;;;3.35;;
9330;SDS011;4704;50.470;12.072;2022-07-23T03:19:37;3.70;;;3.50;;
9330;SDS011;4704;50.470;12.072;2022-07-23T03:22:05;3.63;;;3.10;;
9330;SDS011;4704;50.470;12.072;2022-07-23T03:24:35;3.65;;;3.35;;
9330;SDS011;4704;50.470;12.072;2022-07-23T03:27:20;3.05;;;2.88;;
9330;SDS011;4704;50.470;12.072;2022-07-23T03:29:49;3.50;;;3.30;;
9330;SDS011;4704;50.470;12.072;2022-07-23T03:32:17;3.80;;;3.50;;
9330;SDS011;4704;50.470;12.072;2022-07-23T03:34:44;3.28;;;3.08;;
9330;SDS011;4704;50.470;12.072;2022-07-23T03:37:12;3.75;;;3.55;;
9330;SDS011;4704;50.470;12.072;2022-07-23T03:39:41;3.65;;;3.45;;
9330;SDS011;4704;50.470;12.072;2022-07-23T03:42:09;3.70;;;3.40;;
9330;SDS011;4704;50.470;12.072;2022-07-23T03:44:37;3.55;;;3.35;;
9330;SDS011;4704;50.470;12.072;2022-07-23T03:47:05;3.47;;;3.28;;
9330;SDS011;4704;50.470;12.072;2022-07-23T03:49:33;3.60;;;3.40;;
9330;SDS011;4704;50.470;12.072;2022-07-23T03:52:01;3.65;;;3.45;;
9330;SDS011;4704;50.470;12.072;2022-07-23T03:54:29;4.00;;;3.70;;
9330;SDS011;4704;50.470;12.072;2022-07-23T03:56:58;3.90;;;3.63;;
9330;SDS011;4704;50.470;12.072;2022-07-23T03:59:26;3.35;;;3.15;;
9330;SDS011;4704;50.470;12.072;2022-07-23T04:01:53;3.90;;;3.70;;
9330;SDS011;4704;50.470;12.072;2022-07-23T04:04:21;3.45;;;3.25;;
9330;SDS011;4704;50.470;12.072;2022-07-23T04:06:49;3.58;;;3.38;;
9330;SDS011;4704;50.470;12.072;2022-07-23T04:09:16;3.50;;;3.30;;
9330;SDS011;4704;50.470;12.072;2022-07-23T04:11:44;3.85;;;3.65;;
9330;SDS011;4704;50.470;12.072;2022-07-23T04:14:13;3.95;;;3.70;;
9330;SDS011;4704;50.470;12.072;2022-07-23T04:16:40;3.90;;;3.60;;
9330;SDS011;4704;50.470;12.072;2022-07-23T04:19:08;3.75;;;3.55;;
9330;SDS011;4704;50.470;12.072;2022-07-23T04:21:36;3.70;;;3.50;;
9330;SDS011;4704;50.470;12.072;2022-07-23T04:24:04;3.78;;;3.58;;
9330;SDS011;4704;50.470;12.072;2022-07-23T04:26:31;3.78;;;3.58;;
9330;SDS011;4704;50.470;12.072;2022-07-23T04:28:59;3.95;;;3.75;;
9330;SDS011;4704;50.470;12.072;2022-07-23T04:31:28;3.90;;;3.60;;
9330;SDS011;4704;50.470;12.072;2022-07-23T04:33:56;3.78;;;3.58;;
9330;SDS011;4704;50.470;12.072;2022-07-23T04:36:23;3.85;;;3.65;;
9330;SDS011;4704;50.470;12.072;2022-07-23T04:38:51;3.78;;;3.58;;
9330;SDS011;4704;50.470;12.072;2022-07-23T04:41:19;3.90;;;3.60;;
9330;SDS011;4704;50.470;12.072;2022-07-23T04:43:46;4.20;;;3.90;;
9330;SDS011;4704;50.470;12.072;2022-07-23T04:46:14;3.90;;;3.70;;
9330;SDS011;4704;50.470;12.072;2022-07-23T04:48:43;3.55;;;3.35;;
9330;SDS011;4704;50.470;12.072;2022-07-23T04:51:11;3.90;;;3.70;;
9330;SDS011;4704;50.470;12.072;2022-07-23T04:53:38;4.13;;;3.83;;
9330;SDS011;4704;50.470;12.072;2022-07-23T04:56:06;4.18;;;3.95;;
9330;SDS011;4704;50.470;12.072;2022-07-23T04:58:34;3.72;;;3.47;;
9330;SDS011;4704;50.470;12.072;2022-07-23T05:01:02;4.10;;;3.83;;
9330;SDS011;4704;50.470;12.072;2022-07-23T05:03:29;3.50;;;3.30;;
9330;SDS011;4704;50.470;12.072;2022-07-23T05:05:59;4.10;;;3.80;;
9330;SDS011;4704;50.470;12.072;2022-07-23T05:08:28;4.25;;;4.05;;
9330;SDS011;4704;50.470;12.072;2022-07-23T05:10:55;3.90;;;3.70;;
9330;SDS011;4704;50.470;12.072;2022-07-23T05:13:24;4.15;;;3.85;;
9330;SDS011;4704;50.470;12.072;2022-07-23T05:15:51;3.72;;;3.53;;
9330;SDS011;4704;50.470;12.072;2022-07-23T05:18:19;4.32;;;4.03;;
9330;SDS011;4704;50.470;12.072;2022-07-23T05:20:46;4.55;;;4.25;;
9330;SDS011;4704;50.470;12.072;2022-07-23T05:23:15;3.75;;;3.55;;
9330;SDS011;4704;50.470;12.072;2022-07-23T05:25:43;4.10;;;3.90;;
9330;SDS011;4704;50.470;12.072;2022-07-23T05:28:11;4.18;;;3.97;;
9330;SDS011;4704;50.470;12.072;2022-07-23T05:30:38;3.83;;;3.63;;
9330;SDS011;4704;50.470;12.072;2022-07-23T05:33:06;4.22;;;4.00;;
9330;SDS011;4704;50.470;12.072;2022-07-23T05:35:34;4.45;;;4.15;;
9330;SDS011;4704;50.470;12.072;2022-07-23T05:38:01;4.20;;;4.00;;
9330;SDS011;4704;50.470;12.072;2022-07-23T05:40:31;4.25;;;3.95;;
9330;SDS011;4704;50.470;12.072;2022-07-23T05:42:58;4.10;;;3.90;;
9330;SDS011;4704;50.470;12.072;2022-07-23T05:45:26;4.25;;;4.05;;
9330;SDS011;4704;50.470;12.072;2022-07-23T05:47:53;3.83;;;3.53;;
9330;SDS011;4704;50.470;12.072;2022-07-23T05:50:21;4.13;;;3.90;;
9330;SDS011;4704;50.470;12.072;2022-07-23T05:52:49;4.30;;;4.00;;
9330;SDS011;4704;50.470;12.072;2022-07-23T05:55:17;4.57;;;4.28;;
9330;SDS011;4704;50.470;12.072;2022-07-23T05:57:46;4.70;;;4.40;;
9330;SDS011;4704;50.470;12.072;2022-07-23T06:00:13;4.68;;;4.38;;
9330;SDS011;4704;50.470;12.072;2022-07-23T06:02:41;4.32;;;4.03;;
9330;SDS011;4704;50.470;12.072;2022-07-23T06:05:08;4.30;;;4.00;;
9330;SDS011;4704;50.470;12.072;2022-07-23T06:07:37;4.53;;;4.15;;
9330;SDS011;4704;50.470;12.072;2022-07-23T06:10:04;4.55;;;4.25;;
9330;SDS011;4704;50.470;12.072;2022-07-23T06:12:32;4.10;;;3.90;;
9330;SDS011;4704;50.470;12.072;2022-07-23T06:15:01;4.40;;;4.10;;
9330;SDS011;4704;50.470;12.072;2022-07-23T06:17:28;4.57;;;4.28;;
9330;SDS011;4704;50.470;12.072;2022-07-23T06:19:56;4.75;;;4.35;;
9330;SDS011;4704;50.470;12.072;2022-07-23T06:22:24;4.60;;;4.30;;
9330;SDS011;4704;50.470;12.072;2022-07-23T06:24:52;4.65;;;4.35;;
9330;SDS011;4704;50.470;12.072;2022-07-23T06:27:19;4.65;;;4.35;;
9330;SDS011;4704;50.470;12.072;2022-07-23T06:29:47;5.03;;;4.70;;
9330;SDS011;4704;50.470;12.072;2022-07-23T06:32:16;4.80;;;4.50;;
9330;SDS011;4704;50.470;12.072;2022-07-23T06:34:44;4.70;;;4.40;;
9330;SDS011;4704;50.470;12.072;2022-07-23T06:37:11;4.93;;;4.63;;
9330;SDS011;4704;50.470;12.072;2022-07-23T06:39:39;4.80;;;4.50;;
9330;SDS011;4704;50.470;12.072;2022-07-23T06:42:06;4.90;;;4.60;;
9330;SDS011;4704;50.470;12.072;2022-07-23T06:44:35;4.90;;;4.60;;
9330;SDS011;4704;50.470;12.072;2022-07-23T06:47:03;4.50;;;4.20;;
9330;SDS011;4704;50.470;12.072;2022-07-23T06:49:31;5.00;;;4.70;;
9330;SDS011;4704;50.470;12.072;2022-07-23T06:51:59;5.13;;;4.72;;
9330;SDS011;4704;50.470;12.072;2022-07-23T06:54:26;5.03;;;4.72;;
9330;SDS011;4704;50.470;12.072;2022-07-23T06:56:53;4.95;;;4.65;;
9330;SDS011;4704;50.470;12.072;2022-07-23T06:59:20;4.78;;;4.47;;
9330;SDS011;4704;50.470;12.072;2022-07-23T07:01:48;5.32;;;5.03;;
9330;SDS011;4704;50.470;12.072;2022-07-23T07:04:15;5.18;;;4.78;;
9330;SDS011;4704;50.470;12.072;2022-07-23T07:06:44;5.60;;;5.20;;
9330;SDS011;4704;50.470;12.072;2022-07-23T07:09:11;5.80;;;5.40;;
9330;SDS011;4704;50.470;12.072;2022-07-23T07:11:38;4.85;;;4.55;;
9330;SDS011;4704;50.470;12.072;2022-07-23T07:14:06;5.65;;;5.25;;
9330;SDS011;4704;50.470;12.072;2022-07-23T07:16:34;5.35;;;4.95;;
9330;SDS011;4704;50.470;12.072;2022-07-23T07:19:01;5.43;;;5.03;;
9330;SDS011;4704;50.470;12.072;2022-07-23T07:21:28;5.47;;;5.07;;
9330;SDS011;4704;50.470;12.072;2022-07-23T07:23:57;5.35;;;5.05;;
9330;SDS011;4704;50.470;12.072;2022-07-23T07:26:25;5.68;;;5.30;;
9330;SDS011;4704;50.470;12.072;2022-07-23T07:28:52;5.90;;;5.50;;
9330;SDS011;4704;50.470;12.072;2022-07-23T07:31:19;5.72;;;5.32;;
9330;SDS011;4704;50.470;12.072;2022-07-23T07:33:46;5.45;;;5.05;;
9330;SDS011;4704;50.470;12.072;2022-07-23T07:36:14;6.03;;;5.63;;
9330;SDS011;4704;50.470;12.072;2022-07-23T07:38:41;5.30;;;4.90;;
9330;SDS011;4704;50.470;12.072;2022-07-23T07:41:10;5.68;;;5.28;;
9330;SDS011;4704;50.470;12.072;2022-07-23T07:43:37;5.35;;;5.05;;
9330;SDS011;4704;50.470;12.072;2022-07-23T07:46:05;5.93;;;5.53;;
9330;SDS011;4704;50.470;12.072;2022-07-23T07:48:35;5.63;;;5.25;;
9330;SDS011;4704;50.470;12.072;2022-07-23T07:51:02;6.07;;;5.57;;
9330;SDS011;4704;50.470;12.072;2022-07-23T07:53:30;5.97;;;5.55;;
9330;SDS011;4704;50.470;12.072;2022-07-23T07:55:58;6.10;;;5.60;;
9330;SDS011;4704;50.470;12.072;2022-07-23T07:58:26;5.82;;;5.47;;
9330;SDS011;4704;50.470;12.072;2022-07-23T08:00:54;6.60;;;6.00;;
9330;SDS011;4704;50.470;12.072;2022-07-23T08:03:21;6.05;;;5.65;;
9330;SDS011;4704;50.470;12.072;2022-07-23T08:05:48;6.45;;;6.03;;
9330;SDS011;4704;50.470;12.072;2022-07-23T08:08:16;5.95;;;5.55;;
9330;SDS011;4704;50.470;12.072;2022-07-23T08:10:43;6.13;;;5.72;;
9330;SDS011;4704;50.470;12.072;2022-07-23T08:13:12;6.43;;;5.97;;
9330;SDS011;4704;50.470;12.072;2022-07-23T08:15:42;5.88;;;5.38;;
9330;SDS011;4704;50.470;12.072;2022-07-23T08:18:09;5.72;;;5.32;;
9330;SDS011;4704;50.470;12.072;2022-07-23T08:20:37;5.63;;;5.22;;
9330;SDS011;4704;50.470;12.072;2022-07-23T08:23:04;6.20;;;5.70;;
9330;SDS011;4704;50.470;12.072;2022-07-23T08:25:33;5.97;;;5.57;;
9330;SDS011;4704;50.470;12.072;2022-07-23T08:28:04;6.20;;;5.80;;
9330;SDS011;4704;50.470;12.072;2022-07-23T08:30:31;6.05;;;5.57;;
9330;SDS011;4704;50.470;12.072;2022-07-23T08:33:02;5.97;;;5.47;;
9330;SDS011;4704;50.470;12.072;2022-07-23T08:35:30;5.85;;;5.45;;
9330;SDS011;4704;50.470;12.072;2022-07-23T08:37:58;5.78;;;5.38;;
9330;SDS011;4704;50.470;12.072;2022-07-23T08:40:26;5.78;;;5.38;;
9330;SDS011;4704;50.470;12.072;2022-07-23T08:42:53;5.78;;;5.38;;
9330;SDS011;4704;50.470;12.072;2022-07-23T08:45:22;6.45;;;5.90;;
9330;SDS011;4704;50.470;12.072;2022-07-23T08:47:50;6.10;;;5.60;;
9330;SDS011;4704;50.470;12.072;2022-07-23T08:50:18;5.93;;;5.53;;
9330;SDS011;4704;50.470;12.072;2022-07-23T08:52:46;5.82;;;5.43;;
9330;SDS011;4704;50.470;12.072;2022-07-23T08:55:15;6.10;;;5.70;;
9330;SDS011;4704;50.470;12.072;2022-07-23T08:57:43;6.05;;;5.65;;
9330;SDS011;4704;50.470;12.072;2022-07-23T09:00:11;6.32;;;5.82;;
9330;SDS011;4704;50.470;12.072;2022-07-23T09:02:39;5.90;;;5.50;;
9330;SDS011;4704;50.470;12.072;2022-07-23T09:05:06;6.25;;;5.85;;
9330;SDS011;4704;50.470;12.072;2022-07-23T09:07:35;6.15;;;5.65;;
9330;SDS011;4704;50.470;12.072;2022-07-23T09:10:06;5.68;;;5.28;;
9330;SDS011;4704;50.470;12.072;2022-07-23T09:12:34;6.60;;;6.00;;
9330;SDS011;4704;50.470;12.072;2022-07-23T09:15:06;6.22;;;5.63;;
9330;SDS011;4704;50.470;12.072;2022-07-23T09:17:36;5.65;;;5.25;;
9330;SDS011;4704;50.470;12.072;2022-07-23T09:20:11;5.63;;;5.13;;
9330;SDS011;4704;50.470;12.072;2022-07-23T09:22:41;5.85;;;5.45;;
9330;SDS011;4704;50.470;12.072;2022-07-23T09:25:12;6.03;;;5.63;;
9330;SDS011;4704;50.470;12.072;2022-07-23T09:27:47;5.80;;;5.45;;
9330;SDS011;4704;50.470;12.072;2022-07-23T09:30:15;6.10;;;5.70;;
9330;SDS011;4704;50.470;12.072;2022-07-23T09:32:43;5.85;;;5.35;;
9330;SDS011;4704;50.470;12.072;2022-07-23T09:35:10;6.05;;;5.65;;
9330;SDS011;4704;50.470;12.072;2022-07-23T09:37:37;6.10;;;5.65;;
9330;SDS011;4704;50.470;12.072;2022-07-23T09:40:07;6.13;;;5.72;;
9330;SDS011;4704;50.470;12.072;2022-07-23T09:42:37;6.78;;;6.28;;
9330;SDS011;4704;50.470;12.072;2022-07-23T09:45:06;5.93;;;5.53;;
9330;SDS011;4704;50.470;12.072;2022-07-23T09:47:38;6.03;;;5.63;;
9330;SDS011;4704;50.470;12.072;2022-07-23T09:50:06;6.40;;;6.00;;
9330;SDS011;4704;50.470;12.072;2022-07-23T09:52:35;6.78;;;6.28;;
9330;SDS011;4704;50.470;12.072;2022-07-23T09:55:03;6.10;;;5.70;;
9330;SDS011;4704;50.470;12.072;2022-07-23T09:57:33;6.43;;;5.93;;
9330;SDS011;4704;50.470;12.072;2022-07-23T10:00:02;6.05;;;5.65;;
9330;SDS011;4704;50.470;12.072;2022-07-23T10:02:30;6.00;;;5.60;;
9330;SDS011;4704;50.470;12.072;2022-07-23T10:04:58;6.05;;;5.63;;
9330;SDS011;4704;50.470;12.072;2022-07-23T10:07:26;6.57;;;6.07;;
9330;SDS011;4704;50.470;12.072;2022-07-23T10:09:55;6.30;;;5.90;;
9330;SDS011;4704;50.470;12.072;2022-07-23T10:12:23;6.53;;;6.13;;
9330;SDS011;4704;50.470;12.072;2022-07-23T10:15:09;6.72;;;6.22;;
9330;SDS011;4704;50.470;12.072;2022-07-23T10:17:37;6.57;;;6.10;;
9330;SDS011;4704;50.470;12.072;2022-07-23T10:20:04;5.63;;;5.25;;
9330;SDS011;4704;50.470;12.072;2022-07-23T10:22:33;5.88;;;5.47;;
9330;SDS011;4704;50.470;12.072;2022-07-23T10:25:08;6.13;;;5.72;;
9330;SDS011;4704;50.470;12.072;2022-07-23T10:27:48;5.88;;;5.47;;
9330;SDS011;4704;50.470;12.072;2022-07-23T10:30:22;5.88;;;5.47;;
9330;SDS011;4704;50.470;12.072;2022-07-23T10:32:56;5.80;;;5.40;;
9330;SDS011;4704;50.470;12.072;2022-07-23T10:35:29;6.13;;;5.63;;
9330;SDS011;4704;50.470;12.072;2022-07-23T10:38:01;5.72;;;5.32;;
9330;SDS011;4704;50.470;12.072;2022-07-23T10:40:29;6.10;;;5.70;;
9330;SDS011;4704;50.470;12.072;2022-07-23T10:42:58;6.47;;;6.07;;
9330;SDS011;4704;50.470;12.072;2022-07-23T10:45:31;6.45;;;5.90;;
9330;SDS011;4704;50.470;12.072;2022-07-23T10:48:14;6.10;;;5.70;;
9330;SDS011;4704;50.470;12.072;2022-07-23T10:50:42;5.65;;;5.35;;
9330;SDS011;4704;50.470;12.072;2022-07-23T10:53:13;5.90;;;5.50;;
9330;SDS011;4704;50.470;12.072;2022-07-23T10:55:43;6.18;;;5.68;;
9330;SDS011;4704;50.470;12.072;2022-07-23T10:58:12;6.57;;;6.18;;
9330;SDS011;4704;50.470;12.072;2022-07-23T11:00:45;5.93;;;5.43;;
9330;SDS011;4704;50.470;12.072;2022-07-23T11:03:29;6.13;;;5.72;;
9330;SDS011;4704;50.470;12.072;2022-07-23T11:05:58;6.05;;;5.65;;
9330;SDS011;4704;50.470;12.072;2022-07-23T11:08:26;6.10;;;5.70;;
9330;SDS011;4704;50.470;12.072;2022-07-23T11:10:55;5.93;;;5.53;;
9330;SDS011;4704;50.470;12.072;2022-07-23T11:13:26;6.47;;;5.95;;
9330;SDS011;4704;50.470;12.072;2022-07-23T11:21:47;6.10;;;5.63;;
9330;SDS011;4704;50.470;12.072;2022-07-23T11:24:19;7.22;;;5.75;;
9330;SDS011;4704;50.470;12.072;2022-07-23T11:26:48;6.70;;;6.15;;
9330;SDS011;4704;50.470;12.072;2022-07-23T11:32:03;6.68;;;6.03;;
9330;SDS011;4704;50.470;12.072;2022-07-23T11:34:31;6.65;;;6.05;;
9330;SDS011;4704;50.470;12.072;2022-07-23T11:37:00;6.47;;;5.93;;
9330;SDS011;4704;50.470;12.072;2022-07-23T11:39:28;6.28;;;5.47;;
9330;SDS011;4704;50.470;12.072;2022-07-23T11:41:57;6.55;;;6.05;;
9330;SDS011;4704;50.470;12.072;2022-07-23T11:44:24;6.40;;;5.90;;
9330;SDS011;4704;50.470;12.072;2022-07-23T11:46:55;6.60;;;6.10;;
9330;SDS011;4704;50.470;12.072;2022-07-23T11:49:23;6.50;;;6.03;;
9330;SDS011;4704;50.470;12.072;2022-07-23T11:52:04;6.72;;;6.13;;
9330;SDS011;4704;50.470;12.072;2022-07-23T11:54:32;6.93;;;6.30;;
9330;SDS011;4704;50.470;12.072;2022-07-23T11:57:00;6.38;;;5.88;;
9330;SDS011;4704;50.470;12.072;2022-07-23T11:59:28;6.82;;;6.32;;
9330;SDS011;4704;50.470;12.072;2022-07-23T12:01:57;6.18;;;5.68;;
9330;SDS011;4704;50.470;12.072;2022-07-23T12:04:25;6.75;;;6.20;;
9330;SDS011;4704;50.470;12.072;2022-07-23T12:07:05;6.07;;;5.68;;
9330;SDS011;4704;50.470;12.072;2022-07-23T12:09:49;6.68;;;6.28;;
9330;SDS011;4704;50.470;12.072;2022-07-23T12:12:16;6.47;;;6.00;;
9330;SDS011;4704;50.470;12.072;2022-07-23T12:14:50;6.80;;;6.18;;
9330;SDS011;4704;50.470;12.072;2022-07-23T12:17:17;6.18;;;5.75;;
9330;SDS011;4704;50.470;12.072;2022-07-23T12:19:45;6.88;;;6.38;;
9330;SDS011;4704;50.470;12.072;2022-07-23T12:22:14;6.90;;;6.40;;
9330;SDS011;4704;50.470;12.072;2022-07-23T12:24:54;6.90;;;6.40;;
9330;SDS011;4704;50.470;12.072;2022-07-23T12:27:22;6.50;;;6.00;;
9330;SDS011;4704;50.470;12.072;2022-07-23T12:29:49;6.53;;;6.03;;
9330;SDS011;4704;50.470;12.072;2022-07-23T12:32:17;6.60;;;6.18;;
9330;SDS011;4704;50.470;12.072;2022-07-23T12:34:45;6.63;;;6.20;;
9330;SDS011;4704;50.470;12.072;2022-07-23T12:37:31;6.55;;;6.05;;
9330;SDS011;4704;50.470;12.072;2022-07-23T12:39:58;6.75;;;6.25;;
9330;SDS011;4704;50.470;12.072;2022-07-23T12:42:26;7.00;;;6.50;;
9330;SDS011;4704;50.470;12.072;2022-07-23T12:45:06;6.05;;;5.55;;
9330;SDS011;4704;50.470;12.072;2022-07-23T12:50:30;6.43;;;5.90;;
9330;SDS011;4704;50.470;12.072;2022-07-23T12:53:03;6.57;;;6.07;;
9330;SDS011;4704;50.470;12.072;2022-07-23T12:55:30;6.60;;;6.10;;
9330;SDS011;4704;50.470;12.072;2022-07-23T12:58:02;6.10;;;5.70;;
9330;SDS011;4704;50.470;12.072;2022-07-23T13:00:30;5.93;;;5.53;;
9330;SDS011;4704;50.470;12.072;2022-07-23T13:02:58;6.43;;;5.93;;
9330;SDS011;4704;50.470;12.072;2022-07-23T13:05:25;5.80;;;5.40;;
9330;SDS011;4704;50.470;12.072;2022-07-23T13:07:52;6.40;;;5.90;;
9330;SDS011;4704;50.470;12.072;2022-07-23T13:10:21;6.32;;;5.93;;
9330;SDS011;4704;50.470;12.072;2022-07-23T13:12:48;6.50;;;5.90;;
9330;SDS011;4704;50.470;12.072;2022-07-23T13:15:16;5.72;;;5.25;;
9330;SDS011;4704;50.470;12.072;2022-07-23T13:17:43;6.50;;;6.10;;
9330;SDS011;4704;50.470;12.072;2022-07-23T13:20:11;6.30;;;5.90;;
9330;SDS011;4704;50.470;12.072;2022-07-23T13:22:38;6.28;;;5.88;;
9330;SDS011;4704;50.470;12.072;2022-07-23T13:25:06;6.78;;;6.28;;
9330;SDS011;4704;50.470;12.072;2022-07-23T13:27:35;6.03;;;5.63;;
9330;SDS011;4704;50.470;12.072;2022-07-23T13:30:02;6.32;;;5.93;;
9330;SDS011;4704;50.470;12.072;2022-07-23T13:32:31;6.38;;;5.88;;
9330;SDS011;4704;50.470;12.072;2022-07-23T13:34:58;5.97;;;5.57;;
9330;SDS011;4704;50.470;12.072;2022-07-23T13:37:25;6.10;;;5.70;;
9330;SDS011;4704;50.470;12.072;2022-07-23T13:39:53;6.10;;;5.70;;
9330;SDS011;4704;50.470;12.072;2022-07-23T13:42:20;6.40;;;5.90;;
9330;SDS011;4704;50.470;12.072;2022-07-23T13:44:49;6.30;;;5.90;;
9330;SDS011;4704;50.470;12.072;2022-07-23T13:47:16;5.90;;;5.50;;
9330;SDS011;4704;50.470;12.072;2022-07-23T13:49:43;5.70;;;5.30;;
9330;SDS011;4704;50.470;12.072;2022-07-23T13:52:11;6.18;;;5.68;;
9330;SDS011;4704;50.470;12.072;2022-07-23T13:54:38;5.90;;;5.47;;
9330;SDS011;4704;50.470;12.072;2022-07-23T13:57:05;5.80;;;5.40;;
9330;SDS011;4704;50.470;12.072;2022-07-23T13:59:34;6.00;;;5.60;;
9330;SDS011;4704;50.470;12.072;2022-07-23T14:02:03;5.70;;;5.30;;
9330;SDS011;4704;50.470;12.072;2022-07-23T14:04:30;6.03;;;5.63;;
9330;SDS011;4704;50.470;12.072;2022-07-23T14:06:58;6.30;;;5.80;;
9330;SDS011;4704;50.470;12.072;2022-07-23T14:09:26;5.63;;;5.22;;
9330;SDS011;4704;50.470;12.072;2022-07-23T14:11:55;5.95;;;5.53;;
9330;SDS011;4704;50.470;12.072;2022-07-23T14:14:22;5.80;;;5.40;;
9330;SDS011;4704;50.470;12.072;2022-07-23T14:16:49;5.80;;;5.40;;
9330;SDS011;4704;50.470;12.072;2022-07-23T14:19:18;5.97;;;5.57;;
9330;SDS011;4704;50.470;12.072;2022-07-23T14:21:46;5.75;;;5.35;;
9330;SDS011;4704;50.470;12.072;2022-07-23T14:24:14;6.05;;;5.65;;
9330;SDS011;4704;50.470;12.072;2022-07-23T14:26:41;5.88;;;5.47;;
9330;SDS011;4704;50.470;12.072;2022-07-23T14:29:09;5.82;;;5.43;;
9330;SDS011;4704;50.470;12.072;2022-07-23T14:31:36;6.00;;;5.60;;
9330;SDS011;4704;50.470;12.072;2022-07-23T14:34:03;5.93;;;5.53;;
9330;SDS011;4704;50.470;12.072;2022-07-23T14:36:32;5.80;;;5.40;;
9330;SDS011;4704;50.470;12.072;2022-07-23T14:38:59;6.15;;;5.68;;
9330;SDS011;4704;50.470;12.072;2022-07-23T14:41:27;5.65;;;5.15;;
9330;SDS011;4704;50.470;12.072;2022-07-23T14:43:54;5.85;;;5.45;;
9330;SDS011;4704;50.470;12.072;2022-07-23T14:46:22;5.72;;;5.32;;
9330;SDS011;4704;50.470;12.072;2022-07-23T14:48:49;6.05;;;5.60;;
9330;SDS011;4704;50.470;12.072;2022-07-23T14:51:17;5.53;;;5.15;;
9330;SDS011;4704;50.470;12.072;2022-07-23T14:53:45;6.15;;;5.55;;
9330;SDS011;4704;50.470;12.072;2022-07-23T14:56:13;5.85;;;5.45;;
9330;SDS011;4704;50.470;12.072;2022-07-23T14:58:40;6.00;;;5.60;;
9330;SDS011;4704;50.470;12.072;2022-07-23T15:01:08;6.15;;;5.75;;
9330;SDS011;4704;50.470;12.072;2022-07-23T15:03:36;6.13;;;5.60;;
9330;SDS011;4704;50.470;12.072;2022-07-23T15:06:03;5.80;;;5.40;;
9330;SDS011;4704;50.470;12.072;2022-07-23T15:08:30;6.05;;;5.65;;
9330;SDS011;4704;50.470;12.072;2022-07-23T15:10:59;5.57;;;5.18;;
9330;SDS011;4704;50.470;12.072;2022-07-23T15:13:27;5.65;;;5.20;;
9330;SDS011;4704;50.470;12.072;2022-07-23T15:15:54;5.75;;;5.35;;
9330;SDS011;4704;50.470;12.072;2022-07-23T15:18:21;6.38;;;5.47;;
9330;SDS011;4704;50.470;12.072;2022-07-23T15:20:49;5.82;;;5.43;;